sensor_id;sensor_type;location;lat;lon;timestamp;P1;durP1;ratioP1;P2;durP2;ratioP2
23302;SDS011;11820;48.738;9.092;2023-03-16T00:01:06;9.37;;;8.00;;
23302;SDS011;11820;48.738;9.092;2023-03-16T00:03:32;8.33;;;6.63;;
23302;SDS011;11820;48.738;9.092;2023-03-16T00:05:58;9.10;;;6.50;;
23302;SDS011;11820;48.738;9.092;2023-03-16T00:08:23;7.70;;;6.20;;
23302;SDS011;11820;48.738;9.092;2023-03-16T00:10:49;7.63;;;5.60;;
23302;SDS011;11820;48.738;9.092;2023-03-16T00:13:18;8.30;;;5.20;;
23302;SDS011;11820;48.738;9.092;2023-03-16T00:15:51;10.10;;;6.23;;
23302;SDS011;11820;48.738;9.092;2023-03-16T00:18:21;6.93;;;5.83;;
23302;SDS011;11820;48.738;9.092;2023-03-16T00:20:50;7.00;;;5.87;;
23302;SDS011;11820;48.738;9.092;2023-03-16T00:23:16;6.00;;;5.00;;
23302;SDS011;11820;48.738;9.092;2023-03-16T00:25:42;9.90;;;6.03;;
23302;SDS011;11820;48.738;9.092;2023-03-16T00:28:07;7.67;;;5.70;;
23302;SDS011;11820;48.738;9.092;2023-03-16T00:30:33;6.87;;;5.57;;
23302;SDS011;11820;48.738;9.092;2023-03-16T00:32:58;10.17;;;6.13;;
23302;SDS011;11820;48.738;9.092;2023-03-16T00:35:23;6.53;;;4.83;;
23302;SDS011;11820;48.738;9.092;2023-03-16T00:37:49;6.23;;;4.50;;
23302;SDS011;11820;48.738;9.092;2023-03-16T00:40:15;5.97;;;4.20;;
23302;SDS011;11820;48.738;9.092;2023-03-16T00:42:40;4.80;;;3.90;;
23302;SDS011;11820;48.738;9.092;2023-03-16T00:45:06;6.93;;;4.43;;
23302;SDS011;11820;48.738;9.092;2023-03-16T00:47:32;6.60;;;4.50;;
23302;SDS011;11820;48.738;9.092;2023-03-16T00:49:58;5.13;;;4.10;;
23302;SDS011;11820;48.738;9.092;2023-03-16T00:52:25;5.07;;;3.83;;
23302;SDS011;11820;48.738;9.092;2023-03-16T00:54:52;6.13;;;4.03;;
23302;SDS011;11820;48.738;9.092;2023-03-16T00:57:19;4.33;;;3.97;;
23302;SDS011;11820;48.738;9.092;2023-03-16T00:59:46;4.67;;;4.20;;
23302;SDS011;11820;48.738;9.092;2023-03-16T01:02:12;7.47;;;4.87;;
23302;SDS011;11820;48.738;9.092;2023-03-16T01:04:40;5.17;;;4.20;;
23302;SDS011;11820;48.738;9.092;2023-03-16T01:07:07;5.77;;;4.40;;
23302;SDS011;11820;48.738;9.092;2023-03-16T01:09:34;5.17;;;4.00;;
23302;SDS011;11820;48.738;9.092;2023-03-16T01:12:01;7.27;;;4.10;;
23302;SDS011;11820;48.738;9.092;2023-03-16T01:14:31;4.27;;;3.77;;
23302;SDS011;11820;48.738;9.092;2023-03-16T01:16:57;5.77;;;3.90;;
23302;SDS011;11820;48.738;9.092;2023-03-16T01:19:22;4.73;;;4.00;;
23302;SDS011;11820;48.738;9.092;2023-03-16T01:21:47;4.50;;;3.60;;
23302;SDS011;11820;48.738;9.092;2023-03-16T01:24:13;4.30;;;3.90;;
23302;SDS011;11820;48.738;9.092;2023-03-16T01:26:38;5.47;;;4.30;;
23302;SDS011;11820;48.738;9.092;2023-03-16T01:29:03;6.10;;;5.07;;
23302;SDS011;11820;48.738;9.092;2023-03-16T01:31:29;8.37;;;7.27;;
23302;SDS011;11820;48.738;9.092;2023-03-16T01:33:56;11.70;;;8.60;;
23302;SDS011;11820;48.738;9.092;2023-03-16T01:36:21;9.87;;;8.87;;
23302;SDS011;11820;48.738;9.092;2023-03-16T01:38:47;9.97;;;8.97;;
23302;SDS011;11820;48.738;9.092;2023-03-16T01:41:12;9.50;;;8.50;;
23302;SDS011;11820;48.738;9.092;2023-03-16T01:43:39;9.83;;;8.83;;
23302;SDS011;11820;48.738;9.092;2023-03-16T01:46:08;13.07;;;9.43;;
23302;SDS011;11820;48.738;9.092;2023-03-16T01:56:51;13.30;;;11.37;;
23302;SDS011;11820;48.738;9.092;2023-03-16T01:59:22;14.90;;;11.23;;
23302;SDS011;11820;48.738;9.092;2023-03-16T02:01:52;13.27;;;11.53;;
23302;SDS011;11820;48.738;9.092;2023-03-16T02:06:53;22.97;;;14.10;;
23302;SDS011;11820;48.738;9.092;2023-03-16T02:09:20;15.23;;;13.63;;
23302;SDS011;11820;48.738;9.092;2023-03-16T02:11:46;16.63;;;12.83;;
23302;SDS011;11820;48.738;9.092;2023-03-16T02:14:13;16.43;;;14.00;;
23302;SDS011;11820;48.738;9.092;2023-03-16T02:16:38;20.93;;;12.73;;
23302;SDS011;11820;48.738;9.092;2023-03-16T02:19:11;16.50;;;12.63;;
23302;SDS011;11820;48.738;9.092;2023-03-16T02:21:46;19.23;;;12.70;;
23302;SDS011;11820;48.738;9.092;2023-03-16T02:24:23;13.40;;;12.00;;
23302;SDS011;11820;48.738;9.092;2023-03-16T02:26:52;18.20;;;13.37;;
23302;SDS011;11820;48.738;9.092;2023-03-16T02:29:38;14.33;;;12.33;;
23302;SDS011;11820;48.738;9.092;2023-03-16T02:32:23;15.20;;;12.20;;
23302;SDS011;11820;48.738;9.092;2023-03-16T02:34:51;14.37;;;12.87;;
23302;SDS011;11820;48.738;9.092;2023-03-16T02:37:16;15.13;;;12.50;;
23302;SDS011;11820;48.738;9.092;2023-03-16T02:39:41;14.23;;;12.17;;
23302;SDS011;11820;48.738;9.092;2023-03-16T02:42:09;18.47;;;12.23;;
23302;SDS011;11820;48.738;9.092;2023-03-16T02:44:38;12.97;;;11.47;;
23302;SDS011;11820;48.738;9.092;2023-03-16T02:47:12;19.57;;;11.60;;
23302;SDS011;11820;48.738;9.092;2023-03-16T02:49:44;14.10;;;11.67;;
23302;SDS011;11820;48.738;9.092;2023-03-16T02:52:10;22.63;;;12.90;;
23302;SDS011;11820;48.738;9.092;2023-03-16T02:54:36;18.00;;;13.20;;
23302;SDS011;11820;48.738;9.092;2023-03-16T02:57:02;14.67;;;12.83;;
23302;SDS011;11820;48.738;9.092;2023-03-16T02:59:27;16.50;;;13.47;;
23302;SDS011;11820;48.738;9.092;2023-03-16T03:01:52;25.73;;;11.93;;
23302;SDS011;11820;48.738;9.092;2023-03-16T03:04:18;13.73;;;11.70;;
23302;SDS011;11820;48.738;9.092;2023-03-16T03:06:44;13.40;;;12.00;;
23302;SDS011;11820;48.738;9.092;2023-03-16T03:09:09;32.43;;;12.07;;
23302;SDS011;11820;48.738;9.092;2023-03-16T03:11:38;13.63;;;12.03;;
23302;SDS011;11820;48.738;9.092;2023-03-16T03:14:04;22.33;;;11.83;;
23302;SDS011;11820;48.738;9.092;2023-03-16T03:16:30;11.83;;;10.63;;
23302;SDS011;11820;48.738;9.092;2023-03-16T03:18:55;11.27;;;10.07;;
23302;SDS011;11820;48.738;9.092;2023-03-16T03:21:21;12.00;;;10.77;;
23302;SDS011;11820;48.738;9.092;2023-03-16T03:23:48;12.83;;;10.07;;
23302;SDS011;11820;48.738;9.092;2023-03-16T03:26:13;12.47;;;11.17;;
23302;SDS011;11820;48.738;9.092;2023-03-16T03:28:40;11.47;;;10.27;;
23302;SDS011;11820;48.738;9.092;2023-03-16T03:31:05;10.60;;;9.50;;
23302;SDS011;11820;48.738;9.092;2023-03-16T03:33:31;10.67;;;9.57;;
23302;SDS011;11820;48.738;9.092;2023-03-16T03:35:58;10.33;;;9.33;;
23302;SDS011;11820;48.738;9.092;2023-03-16T03:38:24;10.87;;;9.87;;
23302;SDS011;11820;48.738;9.092;2023-03-16T03:40:50;11.07;;;9.87;;
23302;SDS011;11820;48.738;9.092;2023-03-16T03:43:16;11.90;;;10.67;;
23302;SDS011;11820;48.738;9.092;2023-03-16T03:45:42;11.13;;;9.90;;
23302;SDS011;11820;48.738;9.092;2023-03-16T03:48:07;10.60;;;9.23;;
23302;SDS011;11820;48.738;9.092;2023-03-16T03:50:33;11.17;;;10.07;;
23302;SDS011;11820;48.738;9.092;2023-03-16T03:52:58;11.53;;;10.40;;
23302;SDS011;11820;48.738;9.092;2023-03-16T03:55:23;11.60;;;10.10;;
23302;SDS011;11820;48.738;9.092;2023-03-16T03:57:48;10.03;;;9.00;;
23302;SDS011;11820;48.738;9.092;2023-03-16T04:00:14;11.03;;;9.93;;
23302;SDS011;11820;48.738;9.092;2023-03-16T04:02:44;10.50;;;9.40;;
23302;SDS011;11820;48.738;9.092;2023-03-16T04:05:09;12.37;;;11.07;;
23302;SDS011;11820;48.738;9.092;2023-03-16T04:07:35;11.00;;;9.40;;
23302;SDS011;11820;48.738;9.092;2023-03-16T04:10:00;10.40;;;9.40;;
23302;SDS011;11820;48.738;9.092;2023-03-16T04:12:25;10.80;;;9.77;;
23302;SDS011;11820;48.738;9.092;2023-03-16T04:14:51;11.87;;;9.50;;
23302;SDS011;11820;48.738;9.092;2023-03-16T04:17:16;11.63;;;10.43;;
23302;SDS011;11820;48.738;9.092;2023-03-16T04:19:41;11.53;;;10.37;;
23302;SDS011;11820;48.738;9.092;2023-03-16T04:22:07;12.43;;;11.03;;
23302;SDS011;11820;48.738;9.092;2023-03-16T04:24:32;12.30;;;11.00;;
23302;SDS011;11820;48.738;9.092;2023-03-16T04:26:58;11.30;;;10.20;;
23302;SDS011;11820;48.738;9.092;2023-03-16T04:29:26;11.77;;;10.63;;
23302;SDS011;11820;48.738;9.092;2023-03-16T04:31:52;11.40;;;10.30;;
23302;SDS011;11820;48.738;9.092;2023-03-16T04:34:18;11.83;;;10.33;;
23302;SDS011;11820;48.738;9.092;2023-03-16T04:36:43;10.80;;;9.70;;
23302;SDS011;11820;48.738;9.092;2023-03-16T04:39:09;11.40;;;10.20;;
23302;SDS011;11820;48.738;9.092;2023-03-16T04:41:34;11.83;;;10.47;;
23302;SDS011;11820;48.738;9.092;2023-03-16T04:43:59;11.87;;;10.47;;
23302;SDS011;11820;48.738;9.092;2023-03-16T04:46:25;11.73;;;10.03;;
23302;SDS011;11820;48.738;9.092;2023-03-16T04:48:51;12.30;;;10.10;;
23302;SDS011;11820;48.738;9.092;2023-03-16T04:51:17;11.27;;;9.70;;
23302;SDS011;11820;48.738;9.092;2023-03-16T04:53:42;11.97;;;10.60;;
23302;SDS011;11820;48.738;9.092;2023-03-16T04:56:08;11.47;;;10.27;;
23302;SDS011;11820;48.738;9.092;2023-03-16T04:58:41;11.47;;;9.73;;
23302;SDS011;11820;48.738;9.092;2023-03-16T05:01:07;11.97;;;10.43;;
23302;SDS011;11820;48.738;9.092;2023-03-16T05:03:32;12.57;;;10.63;;
23302;SDS011;11820;48.738;9.092;2023-03-16T05:05:58;12.37;;;10.47;;
23302;SDS011;11820;48.738;9.092;2023-03-16T05:08:24;14.50;;;11.27;;
23302;SDS011;11820;48.738;9.092;2023-03-16T05:10:49;13.27;;;11.37;;
23302;SDS011;11820;48.738;9.092;2023-03-16T05:13:15;12.10;;;10.90;;
23302;SDS011;11820;48.738;9.092;2023-03-16T05:15:40;12.47;;;11.17;;
23302;SDS011;11820;48.738;9.092;2023-03-16T05:18:05;12.53;;;10.60;;
23302;SDS011;11820;48.738;9.092;2023-03-16T05:20:30;12.17;;;10.77;;
23302;SDS011;11820;48.738;9.092;2023-03-16T05:22:56;13.70;;;12.20;;
23302;SDS011;11820;48.738;9.092;2023-03-16T05:25:21;16.00;;;12.50;;
23302;SDS011;11820;48.738;9.092;2023-03-16T05:27:47;17.37;;;12.80;;
23302;SDS011;11820;48.738;9.092;2023-03-16T05:30:15;18.73;;;14.63;;
23302;SDS011;11820;48.738;9.092;2023-03-16T05:32:41;17.73;;;13.80;;
23302;SDS011;11820;48.738;9.092;2023-03-16T05:35:07;16.43;;;12.93;;
23302;SDS011;11820;48.738;9.092;2023-03-16T05:37:36;14.03;;;12.40;;
23302;SDS011;11820;48.738;9.092;2023-03-16T05:40:02;14.63;;;11.77;;
23302;SDS011;11820;48.738;9.092;2023-03-16T05:42:47;14.67;;;12.07;;
23302;SDS011;11820;48.738;9.092;2023-03-16T05:45:15;16.60;;;13.50;;
23302;SDS011;11820;48.738;9.092;2023-03-16T05:47:41;16.50;;;13.63;;
23302;SDS011;11820;48.738;9.092;2023-03-16T05:50:08;16.00;;;13.37;;
23302;SDS011;11820;48.738;9.092;2023-03-16T05:52:35;17.53;;;14.27;;
23302;SDS011;11820;48.738;9.092;2023-03-16T05:55:01;16.43;;;13.97;;
23302;SDS011;11820;48.738;9.092;2023-03-16T05:57:26;17.87;;;14.77;;
23302;SDS011;11820;48.738;9.092;2023-03-16T05:59:51;17.60;;;15.40;;
23302;SDS011;11820;48.738;9.092;2023-03-16T06:02:17;18.23;;;14.33;;
23302;SDS011;11820;48.738;9.092;2023-03-16T06:04:42;18.17;;;14.20;;
23302;SDS011;11820;48.738;9.092;2023-03-16T06:07:07;18.30;;;14.57;;
23302;SDS011;11820;48.738;9.092;2023-03-16T06:09:33;20.73;;;15.00;;
23302;SDS011;11820;48.738;9.092;2023-03-16T06:11:58;21.00;;;16.83;;
23302;SDS011;11820;48.738;9.092;2023-03-16T06:14:23;21.40;;;17.17;;
23302;SDS011;11820;48.738;9.092;2023-03-16T06:16:49;22.67;;;16.00;;
23302;SDS011;11820;48.738;9.092;2023-03-16T06:19:15;17.37;;;14.43;;
23302;SDS011;11820;48.738;9.092;2023-03-16T06:21:40;16.83;;;13.73;;
23302;SDS011;11820;48.738;9.092;2023-03-16T06:24:05;17.33;;;12.97;;
23302;SDS011;11820;48.738;9.092;2023-03-16T06:26:33;16.67;;;14.20;;
23302;SDS011;11820;48.738;9.092;2023-03-16T06:28:59;19.50;;;14.10;;
23302;SDS011;11820;48.738;9.092;2023-03-16T06:31:24;19.43;;;14.70;;
23302;SDS011;11820;48.738;9.092;2023-03-16T06:33:49;19.20;;;14.57;;
23302;SDS011;11820;48.738;9.092;2023-03-16T06:36:15;19.10;;;15.00;;
23302;SDS011;11820;48.738;9.092;2023-03-16T06:38:40;20.63;;;15.80;;
23302;SDS011;11820;48.738;9.092;2023-03-16T06:41:06;17.87;;;13.87;;
23302;SDS011;11820;48.738;9.092;2023-03-16T06:43:31;16.87;;;14.33;;
23302;SDS011;11820;48.738;9.092;2023-03-16T06:45:57;17.77;;;14.57;;
23302;SDS011;11820;48.738;9.092;2023-03-16T06:48:22;19.27;;;14.73;;
23302;SDS011;11820;48.738;9.092;2023-03-16T06:50:48;17.53;;;14.17;;
23302;SDS011;11820;48.738;9.092;2023-03-16T06:53:13;16.93;;;14.07;;
23302;SDS011;11820;48.738;9.092;2023-03-16T06:55:38;17.47;;;12.80;;
23302;SDS011;11820;48.738;9.092;2023-03-16T06:58:05;19.83;;;14.00;;
23302;SDS011;11820;48.738;9.092;2023-03-16T07:00:30;16.63;;;13.00;;
23302;SDS011;11820;48.738;9.092;2023-03-16T07:02:58;16.63;;;13.33;;
23302;SDS011;11820;48.738;9.092;2023-03-16T07:05:23;14.80;;;13.07;;
23302;SDS011;11820;48.738;9.092;2023-03-16T07:07:48;16.80;;;12.93;;
23302;SDS011;11820;48.738;9.092;2023-03-16T07:10:14;18.10;;;13.73;;
23302;SDS011;11820;48.738;9.092;2023-03-16T07:12:41;17.27;;;13.17;;
23302;SDS011;11820;48.738;9.092;2023-03-16T07:15:07;15.00;;;12.37;;
23302;SDS011;11820;48.738;9.092;2023-03-16T07:17:33;16.40;;;12.73;;
23302;SDS011;11820;48.738;9.092;2023-03-16T07:19:59;16.57;;;12.13;;
23302;SDS011;11820;48.738;9.092;2023-03-16T07:22:24;17.67;;;13.07;;
23302;SDS011;11820;48.738;9.092;2023-03-16T07:24:50;13.53;;;11.30;;
23302;SDS011;11820;48.738;9.092;2023-03-16T07:27:21;14.63;;;12.63;;
23302;SDS011;11820;48.738;9.092;2023-03-16T07:29:47;14.70;;;12.10;;
23302;SDS011;11820;48.738;9.092;2023-03-16T07:32:13;14.60;;;12.97;;
23302;SDS011;11820;48.738;9.092;2023-03-16T07:34:39;14.10;;;11.57;;
23302;SDS011;11820;48.738;9.092;2023-03-16T07:37:05;15.23;;;11.30;;
23302;SDS011;11820;48.738;9.092;2023-03-16T07:39:32;15.03;;;11.97;;
23302;SDS011;11820;48.738;9.092;2023-03-16T07:41:58;13.87;;;11.47;;
23302;SDS011;11820;48.738;9.092;2023-03-16T07:44:23;16.37;;;11.97;;
23302;SDS011;11820;48.738;9.092;2023-03-16T07:46:49;12.77;;;10.73;;
23302;SDS011;11820;48.738;9.092;2023-03-16T07:49:15;14.10;;;12.00;;
23302;SDS011;11820;48.738;9.092;2023-03-16T07:51:40;13.90;;;12.33;;
23302;SDS011;11820;48.738;9.092;2023-03-16T07:54:06;13.57;;;11.80;;
23302;SDS011;11820;48.738;9.092;2023-03-16T07:56:31;14.53;;;12.13;;
23302;SDS011;11820;48.738;9.092;2023-03-16T07:58:57;12.17;;;10.87;;
23302;SDS011;11820;48.738;9.092;2023-03-16T08:01:22;14.80;;;11.27;;
23302;SDS011;11820;48.738;9.092;2023-03-16T08:03:48;12.27;;;10.97;;
23302;SDS011;11820;48.738;9.092;2023-03-16T08:06:13;12.80;;;10.30;;
23302;SDS011;11820;48.738;9.092;2023-03-16T08:08:39;14.83;;;10.87;;
23302;SDS011;11820;48.738;9.092;2023-03-16T08:11:04;10.27;;;9.00;;
23302;SDS011;11820;48.738;9.092;2023-03-16T08:13:30;10.27;;;9.03;;
23302;SDS011;11820;48.738;9.092;2023-03-16T08:15:55;9.73;;;7.97;;
23302;SDS011;11820;48.738;9.092;2023-03-16T08:18:25;9.73;;;7.47;;
23302;SDS011;11820;48.738;9.092;2023-03-16T08:20:52;9.50;;;7.63;;
23302;SDS011;11820;48.738;9.092;2023-03-16T08:23:18;8.97;;;7.30;;
23302;SDS011;11820;48.738;9.092;2023-03-16T08:25:43;8.47;;;6.83;;
23302;SDS011;11820;48.738;9.092;2023-03-16T08:28:10;10.27;;;7.63;;
23302;SDS011;11820;48.738;9.092;2023-03-16T08:30:36;8.87;;;7.13;;
23302;SDS011;11820;48.738;9.092;2023-03-16T08:33:08;7.45;;;6.65;;
23302;SDS011;11820;48.738;9.092;2023-03-16T08:35:33;6.83;;;6.00;;
23302;SDS011;11820;48.738;9.092;2023-03-16T08:37:59;8.93;;;6.47;;
23302;SDS011;11820;48.738;9.092;2023-03-16T08:40:25;7.40;;;5.53;;
23302;SDS011;11820;48.738;9.092;2023-03-16T08:42:53;6.40;;;5.70;;
23302;SDS011;11820;48.738;9.092;2023-03-16T08:45:19;9.43;;;6.30;;
23302;SDS011;11820;48.738;9.092;2023-03-16T08:47:45;8.00;;;6.13;;
23302;SDS011;11820;48.738;9.092;2023-03-16T08:50:11;8.60;;;5.70;;
23302;SDS011;11820;48.738;9.092;2023-03-16T08:52:39;7.70;;;6.20;;
23302;SDS011;11820;48.738;9.092;2023-03-16T08:55:05;9.07;;;5.93;;
23302;SDS011;11820;48.738;9.092;2023-03-16T08:57:33;8.20;;;6.93;;
23302;SDS011;11820;48.738;9.092;2023-03-16T08:59:58;8.83;;;5.87;;
23302;SDS011;11820;48.738;9.092;2023-03-16T09:02:25;7.45;;;6.13;;
23302;SDS011;11820;48.738;9.092;2023-03-16T09:04:50;6.73;;;5.43;;
23302;SDS011;11820;48.738;9.092;2023-03-16T09:07:16;6.97;;;5.30;;
23302;SDS011;11820;48.738;9.092;2023-03-16T09:09:43;10.53;;;5.97;;
23302;SDS011;11820;48.738;9.092;2023-03-16T09:12:09;6.10;;;5.50;;
23302;SDS011;11820;48.738;9.092;2023-03-16T09:14:35;6.97;;;6.23;;
23302;SDS011;11820;48.738;9.092;2023-03-16T09:17:02;10.03;;;6.50;;
23302;SDS011;11820;48.738;9.092;2023-03-16T09:19:27;9.10;;;6.53;;
23302;SDS011;11820;48.738;9.092;2023-03-16T09:21:53;10.10;;;6.67;;
23302;SDS011;11820;48.738;9.092;2023-03-16T09:24:18;8.27;;;6.33;;
23302;SDS011;11820;48.738;9.092;2023-03-16T09:26:44;7.87;;;6.23;;
23302;SDS011;11820;48.738;9.092;2023-03-16T09:29:09;9.37;;;6.60;;
23302;SDS011;11820;48.738;9.092;2023-03-16T09:31:34;6.57;;;5.97;;
23302;SDS011;11820;48.738;9.092;2023-03-16T09:34:00;6.73;;;5.87;;
23302;SDS011;11820;48.738;9.092;2023-03-16T09:36:25;10.33;;;6.17;;
23302;SDS011;11820;48.738;9.092;2023-03-16T09:38:51;7.67;;;6.30;;
23302;SDS011;11820;48.738;9.092;2023-03-16T09:44:32;6.87;;;5.90;;
23302;SDS011;11820;48.738;9.092;2023-03-16T09:47:01;6.00;;;5.40;;
23302;SDS011;11820;48.738;9.092;2023-03-16T09:49:33;9.33;;;5.70;;
23302;SDS011;11820;48.738;9.092;2023-03-16T09:52:05;7.20;;;5.83;;
23302;SDS011;11820;48.738;9.092;2023-03-16T09:57:19;6.37;;;5.73;;
23302;SDS011;11820;48.738;9.092;2023-03-16T09:59:48;5.30;;;4.80;;
23302;SDS011;11820;48.738;9.092;2023-03-16T10:02:28;6.70;;;5.60;;
23302;SDS011;11820;48.738;9.092;2023-03-16T10:05:07;8.53;;;5.53;;
23302;SDS011;11820;48.738;9.092;2023-03-16T10:10:25;7.87;;;4.77;;
23302;SDS011;11820;48.738;9.092;2023-03-16T10:12:57;6.77;;;5.27;;
23302;SDS011;11820;48.738;9.092;2023-03-16T10:15:25;5.00;;;4.50;;
23302;SDS011;11820;48.738;9.092;2023-03-16T10:18:01;5.20;;;4.50;;
23302;SDS011;11820;48.738;9.092;2023-03-16T10:20:39;5.57;;;4.93;;
23302;SDS011;11820;48.738;9.092;2023-03-16T10:23:39;7.10;;;4.90;;
23302;SDS011;11820;48.738;9.092;2023-03-16T10:25:59;7.80;;;5.07;;
23302;SDS011;11820;48.738;9.092;2023-03-16T10:28:29;8.57;;;4.43;;
23302;SDS011;11820;48.738;9.092;2023-03-16T10:30:57;5.80;;;4.70;;
23302;SDS011;11820;48.738;9.092;2023-03-16T10:33:25;7.13;;;4.30;;
23302;SDS011;11820;48.738;9.092;2023-03-16T10:38:36;5.37;;;4.70;;
23302;SDS011;11820;48.738;9.092;2023-03-16T10:43:49;5.47;;;4.57;;
23302;SDS011;11820;48.738;9.092;2023-03-16T10:46:22;4.67;;;4.17;;
23302;SDS011;11820;48.738;9.092;2023-03-16T10:48:50;7.67;;;4.47;;
23302;SDS011;11820;48.738;9.092;2023-03-16T10:51:18;5.93;;;4.50;;
23302;SDS011;11820;48.738;9.092;2023-03-16T10:53:50;3.97;;;3.33;;
23302;SDS011;11820;48.738;9.092;2023-03-16T10:56:20;5.10;;;3.63;;
23302;SDS011;11820;48.738;9.092;2023-03-16T10:58:49;4.87;;;3.43;;
23302;SDS011;11820;48.738;9.092;2023-03-16T11:01:25;4.10;;;3.70;;
23302;SDS011;11820;48.738;9.092;2023-03-16T11:03:53;5.87;;;4.13;;
23302;SDS011;11820;48.738;9.092;2023-03-16T11:06:22;6.90;;;4.03;;
23302;SDS011;11820;48.738;9.092;2023-03-16T11:08:50;4.60;;;3.07;;
23302;SDS011;11820;48.738;9.092;2023-03-16T11:11:18;3.50;;;3.20;;
23302;SDS011;11820;48.738;9.092;2023-03-16T11:13:54;3.30;;;2.97;;
23302;SDS011;11820;48.738;9.092;2023-03-16T11:16:29;6.20;;;3.40;;
23302;SDS011;11820;48.738;9.092;2023-03-16T11:19:17;4.33;;;3.40;;
23302;SDS011;11820;48.738;9.092;2023-03-16T11:21:52;3.47;;;3.17;;
23302;SDS011;11820;48.738;9.092;2023-03-16T11:24:54;4.33;;;3.27;;
23302;SDS011;11820;48.738;9.092;2023-03-16T11:27:22;3.83;;;3.03;;
23302;SDS011;11820;48.738;9.092;2023-03-16T11:32:27;7.53;;;3.27;;
23302;SDS011;11820;48.738;9.092;2023-03-16T11:34:58;2.87;;;2.60;;
23302;SDS011;11820;48.738;9.092;2023-03-16T11:40:07;4.17;;;3.30;;
23302;SDS011;11820;48.738;9.092;2023-03-16T11:47:58;4.20;;;3.30;;
23302;SDS011;11820;48.738;9.092;2023-03-16T11:56:27;3.50;;;2.90;;
23302;SDS011;11820;48.738;9.092;2023-03-16T12:05:21;4.03;;;2.73;;
23302;SDS011;11820;48.738;9.092;2023-03-16T12:07:54;3.70;;;2.40;;
23302;SDS011;11820;48.738;9.092;2023-03-16T12:10:22;3.30;;;2.63;;
23302;SDS011;11820;48.738;9.092;2023-03-16T12:15:40;4.20;;;2.70;;
23302;SDS011;11820;48.738;9.092;2023-03-16T12:18:18;4.17;;;2.67;;
23302;SDS011;11820;48.738;9.092;2023-03-16T12:20:50;4.83;;;2.30;;
23302;SDS011;11820;48.738;9.092;2023-03-16T12:23:28;3.80;;;2.50;;
23302;SDS011;11820;48.738;9.092;2023-03-16T12:25:59;2.87;;;2.13;;
23302;SDS011;11820;48.738;9.092;2023-03-16T12:28:25;2.83;;;2.13;;
23302;SDS011;11820;48.738;9.092;2023-03-16T12:46:53;2.80;;;2.10;;
23302;SDS011;11820;48.738;9.092;2023-03-16T12:49:32;2.87;;;1.97;;
23302;SDS011;11820;48.738;9.092;2023-03-16T12:52:03;2.83;;;1.97;;
23302;SDS011;11820;48.738;9.092;2023-03-16T12:54:30;2.20;;;1.53;;
23302;SDS011;11820;48.738;9.092;2023-03-16T12:57:06;2.47;;;2.00;;
23302;SDS011;11820;48.738;9.092;2023-03-16T12:59:37;3.40;;;1.97;;
23302;SDS011;11820;48.738;9.092;2023-03-16T13:02:14;2.27;;;1.73;;
23302;SDS011;11820;48.738;9.092;2023-03-16T13:04:53;2.73;;;1.93;;
23302;SDS011;11820;48.738;9.092;2023-03-16T13:07:23;2.10;;;1.63;;
23302;SDS011;11820;48.738;9.092;2023-03-16T13:12:40;3.33;;;1.90;;
23302;SDS011;11820;48.738;9.092;2023-03-16T13:17:36;5.37;;;1.80;;
23302;SDS011;11820;48.738;9.092;2023-03-16T13:20:21;2.13;;;1.60;;
23302;SDS011;11820;48.738;9.092;2023-03-16T13:23:17;2.03;;;1.60;;
23302;SDS011;11820;48.738;9.092;2023-03-16T13:26:09;2.40;;;1.63;;
23302;SDS011;11820;48.738;9.092;2023-03-16T13:28:40;1.70;;;1.50;;
23302;SDS011;11820;48.738;9.092;2023-03-16T13:31:26;1.93;;;1.50;;
23302;SDS011;11820;48.738;9.092;2023-03-16T13:33:59;2.53;;;1.57;;
23302;SDS011;11820;48.738;9.092;2023-03-16T13:36:27;3.73;;;1.70;;
23302;SDS011;11820;48.738;9.092;2023-03-16T13:38:54;2.53;;;1.73;;
23302;SDS011;11820;48.738;9.092;2023-03-16T13:41:40;1.77;;;1.63;;
23302;SDS011;11820;48.738;9.092;2023-03-16T13:44:15;3.60;;;1.90;;
23302;SDS011;11820;48.738;9.092;2023-03-16T13:46:42;2.30;;;1.93;;
23302;SDS011;11820;48.738;9.092;2023-03-16T13:49:13;1.70;;;1.60;;
23302;SDS011;11820;48.738;9.092;2023-03-16T13:51:39;2.93;;;1.90;;
23302;SDS011;11820;48.738;9.092;2023-03-16T13:54:17;3.33;;;1.67;;
23302;SDS011;11820;48.738;9.092;2023-03-16T13:56:48;4.20;;;1.90;;
23302;SDS011;11820;48.738;9.092;2023-03-16T13:59:16;2.57;;;1.53;;
23302;SDS011;11820;48.738;9.092;2023-03-16T14:01:43;3.13;;;1.80;;
23302;SDS011;11820;48.738;9.092;2023-03-16T14:04:09;3.30;;;2.13;;
23302;SDS011;11820;48.738;9.092;2023-03-16T14:06:38;2.67;;;1.87;;
23302;SDS011;11820;48.738;9.092;2023-03-16T14:09:05;3.70;;;1.93;;
23302;SDS011;11820;48.738;9.092;2023-03-16T14:11:45;5.40;;;2.00;;
23302;SDS011;11820;48.738;9.092;2023-03-16T14:14:13;2.37;;;1.60;;
23302;SDS011;11820;48.738;9.092;2023-03-16T14:16:40;1.67;;;1.57;;
23302;SDS011;11820;48.738;9.092;2023-03-16T14:19:16;2.27;;;1.60;;
23302;SDS011;11820;48.738;9.092;2023-03-16T14:21:46;2.07;;;1.73;;
23302;SDS011;11820;48.738;9.092;2023-03-16T14:24:34;2.70;;;2.00;;
23302;SDS011;11820;48.738;9.092;2023-03-16T14:30:18;4.27;;;2.33;;
23302;SDS011;11820;48.738;9.092;2023-03-16T14:32:55;2.00;;;1.40;;
23302;SDS011;11820;48.738;9.092;2023-03-16T14:35:29;2.30;;;1.80;;
23302;SDS011;11820;48.738;9.092;2023-03-16T14:38:06;1.77;;;1.50;;
23302;SDS011;11820;48.738;9.092;2023-03-16T14:40:53;2.70;;;1.43;;
23302;SDS011;11820;48.738;9.092;2023-03-16T14:43:24;2.80;;;1.73;;
23302;SDS011;11820;48.738;9.092;2023-03-16T14:45:53;2.30;;;1.73;;
23302;SDS011;11820;48.738;9.092;2023-03-16T14:48:19;2.80;;;1.90;;
23302;SDS011;11820;48.738;9.092;2023-03-16T14:50:51;1.90;;;1.63;;
23302;SDS011;11820;48.738;9.092;2023-03-16T14:53:19;2.80;;;1.73;;
23302;SDS011;11820;48.738;9.092;2023-03-16T14:55:45;2.70;;;1.47;;
23302;SDS011;11820;48.738;9.092;2023-03-16T14:58:11;2.43;;;1.30;;
23302;SDS011;11820;48.738;9.092;2023-03-16T15:00:37;1.73;;;1.37;;
23302;SDS011;11820;48.738;9.092;2023-03-16T15:03:04;2.17;;;1.70;;
23302;SDS011;11820;48.738;9.092;2023-03-16T15:05:36;2.07;;;1.50;;
23302;SDS011;11820;48.738;9.092;2023-03-16T15:08:04;2.03;;;1.40;;
23302;SDS011;11820;48.738;9.092;2023-03-16T15:10:31;2.37;;;1.47;;
23302;SDS011;11820;48.738;9.092;2023-03-16T15:12:59;3.70;;;1.67;;
23302;SDS011;11820;48.738;9.092;2023-03-16T15:15:30;3.33;;;1.63;;
23302;SDS011;11820;48.738;9.092;2023-03-16T15:17:56;3.73;;;1.63;;
23302;SDS011;11820;48.738;9.092;2023-03-16T15:20:24;1.40;;;1.30;;
23302;SDS011;11820;48.738;9.092;2023-03-16T15:22:55;2.10;;;1.40;;
23302;SDS011;11820;48.738;9.092;2023-03-16T15:28:20;3.17;;;1.30;;
23302;SDS011;11820;48.738;9.092;2023-03-16T15:30:48;3.57;;;1.47;;
23302;SDS011;11820;48.738;9.092;2023-03-16T15:33:18;2.03;;;1.70;;
23302;SDS011;11820;48.738;9.092;2023-03-16T15:35:44;4.97;;;1.33;;
23302;SDS011;11820;48.738;9.092;2023-03-16T15:38:19;1.92;;;1.33;;
23302;SDS011;11820;48.738;9.092;2023-03-16T15:40:49;2.30;;;1.60;;
23302;SDS011;11820;48.738;9.092;2023-03-16T15:43:16;2.00;;;1.30;;
23302;SDS011;11820;48.738;9.092;2023-03-16T15:45:43;2.73;;;1.50;;
23302;SDS011;11820;48.738;9.092;2023-03-16T15:48:12;2.93;;;1.50;;
23302;SDS011;11820;48.738;9.092;2023-03-16T15:50:39;1.90;;;1.70;;
23302;SDS011;11820;48.738;9.092;2023-03-16T15:53:09;1.97;;;1.73;;
23302;SDS011;11820;48.738;9.092;2023-03-16T15:55:41;1.60;;;1.50;;
23302;SDS011;11820;48.738;9.092;2023-03-16T15:58:15;3.07;;;1.73;;
23302;SDS011;11820;48.738;9.092;2023-03-16T16:00:48;2.53;;;1.50;;